createdAt,value
2022-11-20T00:02:16.935Z,6.27
2022-11-20T00:04:49.891Z,6.24
2022-11-20T00:07:22.910Z,6.22
2022-11-20T00:09:55.674Z,6.19
2022-11-20T00:12:29.917Z,6.21
2022-11-20T00:15:02.725Z,6.18
2022-11-20T00:17:35.455Z,6.21
2022-11-20T00:20:09.002Z,6.11
2022-11-20T00:22:41.966Z,6.17
2022-11-20T00:25:14.647Z,6.16
2022-11-20T00:27:48.741Z,6.15
2022-11-20T00:30:21.666Z,6.08
2022-11-20T00:32:54.584Z,6.11
2022-11-20T00:35:27.341Z,6.10
2022-11-20T00:38:00.165Z,6.08
2022-11-20T00:40:33.143Z,6.06
2022-11-20T00:43:07.167Z,5.98
2022-11-20T00:45:41.462Z,5.95
2022-11-20T00:48:14.242Z,5.93
2022-11-20T00:50:47.206Z,5.92
2022-11-20T00:53:21.246Z,5.90
2022-11-20T00:55:58.039Z,5.92
2022-11-20T00:58:34.800Z,5.90
2022-11-20T01:01:09.449Z,5.89
2022-11-20T01:03:44.022Z,5.89
2022-11-20T01:06:18.887Z,5.77
2022-11-20T01:08:52.997Z,5.81
2022-11-20T01:11:27.902Z,5.80
2022-11-20T01:14:03.124Z,5.79
2022-11-20T01:16:38.452Z,5.79
2022-11-20T01:19:17.524Z,5.80
2022-11-20T01:21:53.327Z,5.74
2022-11-20T01:24:26.101Z,5.80
2022-11-20T01:26:59.253Z,5.81
2022-11-20T01:29:33.457Z,5.75
2022-11-20T01:32:06.534Z,5.72
2022-11-20T01:34:39.315Z,5.73
2022-11-20T01:37:12.054Z,5.73
2022-11-20T01:39:45.222Z,5.73
2022-11-20T01:42:35.776Z,5.69
2022-11-20T01:45:41.687Z,5.70
2022-11-20T01:48:16.197Z,5.70
2022-11-20T01:50:49.133Z,5.62
2022-11-20T01:53:24.677Z,5.65
2022-11-20T01:56:01.567Z,5.66
2022-11-20T01:58:40.116Z,5.65
2022-11-20T02:01:13.583Z,5.56
2022-11-20T02:03:49.248Z,5.58
2022-11-20T02:06:26.494Z,5.59
2022-11-20T02:08:59.385Z,5.53
2022-11-20T02:11:32.605Z,5.52
2022-11-20T02:14:04.968Z,5.51
2022-11-20T02:16:40.521Z,5.49
2022-11-20T02:19:24.105Z,5.47
2022-11-20T02:22:04.082Z,5.46
2022-11-20T02:24:38.379Z,5.37
2022-11-20T02:27:13.907Z,5.44
2022-11-20T02:29:51.547Z,5.34
2022-11-20T02:32:27.948Z,5.33
2022-11-20T02:35:08.214Z,5.26
2022-11-20T02:37:42.389Z,5.24
2022-11-20T02:40:17.301Z,5.21
2022-11-20T02:42:53.798Z,5.20
2022-11-20T02:45:26.985Z,5.22
2022-11-20T02:47:59.720Z,5.22
2022-11-20T02:50:32.750Z,5.19
2022-11-20T02:53:05.465Z,5.17
2022-11-20T02:55:39.629Z,5.18
2022-11-20T02:58:12.791Z,5.11
2022-11-20T03:00:47.605Z,5.16
2022-11-20T03:03:20.411Z,5.15
2022-11-20T03:05:53.167Z,5.11
2022-11-20T03:08:25.915Z,5.06
2022-11-20T03:11:04.557Z,5.06
2022-11-20T03:13:37.721Z,5.03
2022-11-20T03:16:12.511Z,5.01
2022-11-20T03:18:45.673Z,4.94
2022-11-20T03:21:18.571Z,4.91
2022-11-20T03:23:51.529Z,4.93
2022-11-20T03:26:27.620Z,4.88
2022-11-20T03:29:02.330Z,4.82
2022-11-20T03:31:37.152Z,4.84
2022-11-20T03:34:11.745Z,4.80
2022-11-20T03:36:45.010Z,4.82
2022-11-20T03:39:18.855Z,4.82
2022-11-20T03:41:53.135Z,4.80
2022-11-20T03:44:26.057Z,4.76
2022-11-20T03:46:58.661Z,4.68
2022-11-20T03:49:31.390Z,4.66
2022-11-20T03:52:04.080Z,4.66
2022-11-20T03:54:37.073Z,4.67
2022-11-20T03:57:11.022Z,4.65
2022-11-20T03:59:43.948Z,4.59
2022-11-20T04:02:16.646Z,4.62
2022-11-20T04:04:49.810Z,4.62
2022-11-20T04:07:22.531Z,4.56
2022-11-20T04:09:55.284Z,4.53
2022-11-20T04:12:29.333Z,4.57
2022-11-20T04:15:02.898Z,4.63
2022-11-20T04:17:35.860Z,4.53
2022-11-20T04:20:08.899Z,4.48
2022-11-20T04:22:41.839Z,4.52
2022-11-20T04:25:14.821Z,4.49
2022-11-20T04:27:48.974Z,4.49
2022-11-20T04:30:21.756Z,4.44
2022-11-20T04:32:54.905Z,4.43
2022-11-20T04:35:27.675Z,4.43
2022-11-20T04:38:00.392Z,4.43
2022-11-20T04:40:33.295Z,4.38
2022-11-20T04:43:07.225Z,4.43
2022-11-20T04:45:40.071Z,4.36
2022-11-20T04:48:12.869Z,4.38
2022-11-20T04:50:45.668Z,4.40
2022-11-20T04:53:18.482Z,4.39
2022-11-20T04:55:51.714Z,4.42
2022-11-20T04:58:25.908Z,4.42
2022-11-20T05:01:04.288Z,4.38
2022-11-20T05:03:42.123Z,4.38
2022-11-20T05:06:16.962Z,4.38
2022-11-20T05:08:50.075Z,4.35
2022-11-20T05:11:23.590Z,4.39
2022-11-20T05:14:01.051Z,4.35
2022-11-20T05:16:36.478Z,4.38
2022-11-20T05:19:09.574Z,4.31
2022-11-20T05:21:42.290Z,4.37
2022-11-20T05:24:15.060Z,4.36
2022-11-20T05:26:47.801Z,4.35
2022-11-20T05:29:22.183Z,4.38
2022-11-20T05:31:55.017Z,4.39
2022-11-20T05:34:27.769Z,4.35
2022-11-20T05:37:00.554Z,4.35
2022-11-20T05:39:33.528Z,4.31
2022-11-20T05:42:23.528Z,4.36
2022-11-20T05:44:58.118Z,4.31
2022-11-20T05:47:35.979Z,4.31
2022-11-20T05:50:09.297Z,4.29
2022-11-20T05:52:42.065Z,4.30
2022-11-20T05:55:14.984Z,4.27
2022-11-20T05:57:47.668Z,4.29
2022-11-20T06:00:22.097Z,4.28
2022-11-20T06:02:56.027Z,4.31
2022-11-20T06:05:28.815Z,4.28
2022-11-20T06:08:02.643Z,4.28
2022-11-20T06:10:35.561Z,4.26
2022-11-20T06:13:08.508Z,4.26
2022-11-20T06:15:42.614Z,4.27
2022-11-20T06:18:15.570Z,4.25
2022-11-20T06:20:48.332Z,4.25
2022-11-20T06:23:21.043Z,4.19
2022-11-20T06:25:53.771Z,4.25
2022-11-20T06:28:26.743Z,4.25
2022-11-20T06:31:00.991Z,4.32
2022-11-20T06:33:34.646Z,4.26
2022-11-20T06:36:10.896Z,4.25
2022-11-20T06:38:44.901Z,4.25
2022-11-20T06:41:21.903Z,4.30
2022-11-20T06:43:54.873Z,4.29
2022-11-20T06:46:32.076Z,4.24
2022-11-20T06:49:05.804Z,4.34
2022-11-20T06:51:39.380Z,4.27
2022-11-20T06:54:12.469Z,4.33
2022-11-20T06:56:49.641Z,4.30
2022-11-20T06:59:22.882Z,4.30
2022-11-20T07:01:57.229Z,4.36
2022-11-20T07:04:30.329Z,4.34
2022-11-20T07:07:03.403Z,4.35
2022-11-20T07:09:37.593Z,4.37
2022-11-20T07:12:10.719Z,4.40
2022-11-20T07:14:46.371Z,4.40
2022-11-20T07:17:20.753Z,4.41
2022-11-20T07:19:53.727Z,4.46
2022-11-20T07:22:27.615Z,4.44
2022-11-20T07:25:00.897Z,4.47
2022-11-20T07:27:36.523Z,4.47
2022-11-20T07:30:10.291Z,4.49
2022-11-20T07:32:52.597Z,4.55
2022-11-20T07:35:26.082Z,4.51
2022-11-20T07:37:59.046Z,4.47
2022-11-20T07:40:31.841Z,4.53
2022-11-20T07:43:04.886Z,4.56
2022-11-20T07:45:37.574Z,4.56
2022-11-20T07:48:11.811Z,4.58
2022-11-20T07:50:45.838Z,4.61
2022-11-20T07:53:21.759Z,4.59
2022-11-20T07:55:54.695Z,4.65
2022-11-20T07:58:27.358Z,4.71
2022-11-20T08:01:00.354Z,4.71
2022-11-20T08:03:39.343Z,4.76
2022-11-20T08:06:12.430Z,4.75
2022-11-20T08:08:45.269Z,4.77
2022-11-20T08:11:35.652Z,4.78
2022-11-20T08:14:14.217Z,4.77
2022-11-20T08:16:48.899Z,4.78
2022-11-20T08:19:23.292Z,4.70
2022-11-20T08:21:57.431Z,4.71
2022-11-20T08:24:30.459Z,4.72
2022-11-20T08:27:03.461Z,4.77
2022-11-20T08:29:36.923Z,4.83
2022-11-20T08:32:12.453Z,4.77
2022-11-20T08:34:47.428Z,4.80
2022-11-20T08:37:20.594Z,4.89
2022-11-20T08:39:54.577Z,4.90
2022-11-20T08:42:27.421Z,4.94
2022-11-20T08:45:00.248Z,4.83
2022-11-20T08:47:32.976Z,4.83
2022-11-20T08:50:11.082Z,4.86
2022-11-20T08:52:44.292Z,4.85
2022-11-20T08:55:19.795Z,4.89
2022-11-20T08:57:52.717Z,4.96
2022-11-20T09:00:25.627Z,4.89
2022-11-20T09:02:59.673Z,4.87
2022-11-20T09:05:34.415Z,4.89
2022-11-20T09:08:07.929Z,4.90
2022-11-20T09:10:41.662Z,4.91
2022-11-20T09:13:14.570Z,4.88
2022-11-20T09:15:47.414Z,4.92
2022-11-20T09:18:20.613Z,4.94
2022-11-20T09:21:00.480Z,4.99
2022-11-20T09:23:38.147Z,5.07
2022-11-20T09:26:16.313Z,5.01
2022-11-20T09:28:55.372Z,5.13
2022-11-20T09:31:31.184Z,5.13
2022-11-20T09:34:05.073Z,5.10
2022-11-20T09:36:39.532Z,5.08
2022-11-20T09:39:14.394Z,5.06
2022-11-20T09:42:16.881Z,5.12
2022-11-20T09:45:12.628Z,5.10
2022-11-20T09:48:00.668Z,5.15
2022-11-20T09:50:38.642Z,5.19
2022-11-20T09:53:18.550Z,5.24
2022-11-20T09:55:51.746Z,5.21
2022-11-20T09:58:33.635Z,5.25
2022-11-20T10:01:14.108Z,5.26
2022-11-20T10:03:55.860Z,5.14
2022-11-20T10:06:33.159Z,5.22
2022-11-20T10:09:20.322Z,5.31
2022-11-20T10:12:07.875Z,5.35
2022-11-20T10:14:58.519Z,5.37
2022-11-20T10:17:56.779Z,5.33
2022-11-20T10:20:44.402Z,5.38
2022-11-20T10:23:38.951Z,5.35
2022-11-20T10:26:21.956Z,5.39
2022-11-20T10:29:11.215Z,5.41
2022-11-20T10:31:47.394Z,5.42
2022-11-20T10:34:26.602Z,5.40
2022-11-20T10:37:04.687Z,5.46
2022-11-20T10:39:44.429Z,5.50
2022-11-20T10:42:26.849Z,5.48
2022-11-20T10:45:13.398Z,5.50
2022-11-20T10:47:46.536Z,5.58
2022-11-20T10:50:24.201Z,5.58
2022-11-20T10:53:07.291Z,5.63
2022-11-20T10:55:45.727Z,5.57
2022-11-20T10:58:28.233Z,5.59
2022-11-20T11:01:06.280Z,5.66
2022-11-20T11:03:39.601Z,5.62
2022-11-20T11:06:19.445Z,5.71
2022-11-20T11:09:32.197Z,5.65
2022-11-20T11:12:09.763Z,5.73
2022-11-20T11:14:49.704Z,5.67
2022-11-20T11:17:29.349Z,5.73
2022-11-20T11:20:04.128Z,5.76
2022-11-20T11:22:46.963Z,5.83
2022-11-20T11:25:35.496Z,5.68
2022-11-20T11:28:23.057Z,5.83
2022-11-20T11:31:04.834Z,5.80
2022-11-20T11:33:40.263Z,5.80
2022-11-20T11:36:21.951Z,5.91
2022-11-20T11:38:55.687Z,5.89
2022-11-20T11:41:34.117Z,5.91
2022-11-20T11:44:37.366Z,5.94
2022-11-20T11:47:20.881Z,6.01
2022-11-20T11:50:03.436Z,6.06
2022-11-20T11:52:47.678Z,6.17
2022-11-20T11:55:31.282Z,6.15
2022-11-20T11:58:15.795Z,6.09
2022-11-20T12:00:56.972Z,6.11
2022-11-20T12:03:37.277Z,6.21
2022-11-20T12:06:14.725Z,6.14
2022-11-20T12:08:53.616Z,6.25
2022-11-20T12:11:35.237Z,6.21
2022-11-20T12:14:17.422Z,6.14
2022-11-20T12:16:50.534Z,6.14
2022-11-20T12:19:25.014Z,6.41
2022-11-20T12:22:06.432Z,6.48
2022-11-20T12:24:47.844Z,6.27
2022-11-20T12:27:46.202Z,6.34
2022-11-20T12:30:23.508Z,6.47
2022-11-20T12:33:28.090Z,6.28
2022-11-20T12:36:12.184Z,6.34
2022-11-20T12:38:56.928Z,6.27
2022-11-20T12:42:06.734Z,6.25
2022-11-20T12:45:10.273Z,6.31
2022-11-20T12:48:00.820Z,6.26
2022-11-20T12:51:13.444Z,6.33
2022-11-20T12:53:53.831Z,6.31
2022-11-20T12:56:35.389Z,6.36
2022-11-20T12:59:25.584Z,6.42
2022-11-20T13:02:05.186Z,6.44
2022-11-20T13:04:58.137Z,6.40
2022-11-20T13:07:32.610Z,6.37
2022-11-20T13:10:17.739Z,6.40
2022-11-20T13:12:58.191Z,6.40
2022-11-20T13:15:46.644Z,6.43
2022-11-20T13:18:22.936Z,6.39
2022-11-20T13:20:55.739Z,6.46
2022-11-20T13:23:30.072Z,6.52
2022-11-20T13:26:17.124Z,6.45
2022-11-20T13:29:02.144Z,6.48
2022-11-20T13:31:36.976Z,6.37
2022-11-20T13:34:14.414Z,6.52
2022-11-20T13:36:54.897Z,6.59
2022-11-20T13:39:29.526Z,6.45
2022-11-20T13:42:22.759Z,6.49
2022-11-20T13:44:57.293Z,6.47
2022-11-20T13:47:31.233Z,6.49
2022-11-20T13:50:06.564Z,6.51
2022-11-20T13:52:48.691Z,6.49
2022-11-20T13:55:28.500Z,6.52
2022-11-20T13:58:21.471Z,6.56
2022-11-20T14:01:02.944Z,6.61
2022-11-20T14:04:05.709Z,6.73
2022-11-20T14:06:30.356Z,6.68
2022-11-20T14:09:03.342Z,6.65
2022-11-20T14:11:36.208Z,6.65
2022-11-20T14:14:18.485Z,6.63
2022-11-20T14:16:51.954Z,6.76
2022-11-20T14:19:31.360Z,6.80
2022-11-20T14:22:22.152Z,6.82
2022-11-20T14:25:08.314Z,6.70
2022-11-20T14:27:42.975Z,6.68
2022-11-20T14:30:20.398Z,6.58
2022-11-20T14:32:56.521Z,6.64
2022-11-20T14:35:31.753Z,6.75
2022-11-20T14:38:05.406Z,6.64
2022-11-20T14:40:38.511Z,6.75
2022-11-20T14:43:20.682Z,6.67
2022-11-20T14:46:03.230Z,6.79
2022-11-20T14:48:41.376Z,6.84
2022-11-20T14:51:24.992Z,6.87
2022-11-20T14:53:58.004Z,6.95
2022-11-20T14:56:30.690Z,6.81
2022-11-20T14:59:03.767Z,6.94
2022-11-20T15:01:38.464Z,6.95
2022-11-20T15:04:12.711Z,6.95
2022-11-20T15:06:52.322Z,7.00
2022-11-20T15:09:25.393Z,7.11
2022-11-20T15:11:59.292Z,7.11
2022-11-20T15:14:34.977Z,7.13
2022-11-20T15:17:13.648Z,7.18
2022-11-20T15:19:46.723Z,7.11
2022-11-20T15:22:20.981Z,7.10
2022-11-20T15:24:53.963Z,7.14
2022-11-20T15:27:26.775Z,7.25
2022-11-20T15:29:59.623Z,7.19
2022-11-20T15:32:33.884Z,7.24
2022-11-20T15:35:07.599Z,7.24
2022-11-20T15:37:41.097Z,7.23
2022-11-20T15:40:14.213Z,7.18
2022-11-20T15:43:00.841Z,7.11
2022-11-20T15:45:40.031Z,7.11
2022-11-20T15:48:18.431Z,7.11
2022-11-20T15:50:58.396Z,7.13
2022-11-20T15:53:31.791Z,7.24
2022-11-20T15:56:04.834Z,7.13
2022-11-20T15:58:37.644Z,7.15
2022-11-20T16:01:12.674Z,7.16
2022-11-20T16:03:49.283Z,7.09
2022-11-20T16:06:22.198Z,7.11
2022-11-20T16:08:55.134Z,7.26
2022-11-20T16:11:30.064Z,7.28
2022-11-20T16:14:22.862Z,7.26
2022-11-20T16:16:55.941Z,7.15
2022-11-20T16:19:30.021Z,7.28
2022-11-20T16:22:03.398Z,7.33
2022-11-20T16:24:36.518Z,7.31
2022-11-20T16:27:13.240Z,7.33
2022-11-20T16:29:46.699Z,7.30
2022-11-20T16:32:19.814Z,7.25
2022-11-20T16:34:54.489Z,7.16
2022-11-20T16:37:30.223Z,7.15
2022-11-20T16:40:12.202Z,7.16
2022-11-20T16:42:45.594Z,7.10
2022-11-20T16:45:25.301Z,7.18
2022-11-20T16:47:59.966Z,7.30
2022-11-20T16:50:34.446Z,7.26
2022-11-20T16:53:09.020Z,7.27
2022-11-20T16:55:44.375Z,7.29
2022-11-20T16:58:17.864Z,7.27
2022-11-20T17:00:51.966Z,7.27
2022-11-20T17:03:24.894Z,7.29
2022-11-20T17:05:59.334Z,7.33
2022-11-20T17:08:36.205Z,7.37
2022-11-20T17:11:10.649Z,7.25
2022-11-20T17:13:45.138Z,7.29
2022-11-20T17:16:20.551Z,7.28
2022-11-20T17:18:59.751Z,7.25
2022-11-20T17:21:41.340Z,7.30
2022-11-20T17:24:18.211Z,7.30
2022-11-20T17:26:51.346Z,7.25
2022-11-20T17:29:28.043Z,7.28
2022-11-20T17:32:01.273Z,7.29
2022-11-20T17:34:36.578Z,7.29
2022-11-20T17:37:11.206Z,7.38
2022-11-20T17:39:44.867Z,7.37
2022-11-20T17:42:36.646Z,7.31
2022-11-20T17:45:09.861Z,7.26
2022-11-20T17:47:44.980Z,7.35
2022-11-20T17:50:22.466Z,7.32
2022-11-20T17:53:14.794Z,7.32
2022-11-20T17:56:13.772Z,7.41
2022-11-20T17:58:46.997Z,7.42
2022-11-20T18:01:20.933Z,7.33
2022-11-20T18:03:56.717Z,7.27
2022-11-20T18:06:35.609Z,7.29
2022-11-20T18:09:10.502Z,7.32
2022-11-20T18:11:44.745Z,7.34
2022-11-20T18:14:32.452Z,7.28
2022-11-20T18:17:07.029Z,7.29
2022-11-20T18:19:51.544Z,7.31
2022-11-20T18:22:34.082Z,7.33
2022-11-20T18:25:09.422Z,7.27
2022-11-20T18:27:46.910Z,7.35
2022-11-20T18:30:29.259Z,7.33
2022-11-20T18:33:05.472Z,7.35
2022-11-20T18:35:43.315Z,7.29
2022-11-20T18:38:19.082Z,7.38
2022-11-20T18:40:59.623Z,7.36
2022-11-20T18:43:58.331Z,7.39
2022-11-20T18:46:31.478Z,7.32
2022-11-20T18:49:04.261Z,7.31
2022-11-20T18:51:39.016Z,7.25
2022-11-20T18:54:12.904Z,7.33
2022-11-20T18:56:50.966Z,7.30
2022-11-20T18:59:23.968Z,7.40
2022-11-20T19:01:56.937Z,7.28
2022-11-20T19:04:30.465Z,7.30
2022-11-20T19:07:03.611Z,7.22
2022-11-20T19:09:37.877Z,7.25
2022-11-20T19:12:13.557Z,7.24
2022-11-20T19:14:49.710Z,7.20
2022-11-20T19:17:24.593Z,7.26
2022-11-20T19:19:57.774Z,7.25
2022-11-20T19:22:34.269Z,7.36
2022-11-20T19:25:08.493Z,7.19
2022-11-20T19:27:42.795Z,7.22
2022-11-20T19:30:20.614Z,7.33
2022-11-20T19:33:08.652Z,7.27
2022-11-20T19:35:42.421Z,7.39
2022-11-20T19:38:19.890Z,7.41
2022-11-20T19:40:53.151Z,7.44
2022-11-20T19:43:27.583Z,7.40
2022-11-20T19:46:00.858Z,7.50
2022-11-20T19:48:35.070Z,7.49
2022-11-20T19:51:13.895Z,7.60
2022-11-20T19:53:47.252Z,7.64
2022-11-20T19:56:23.567Z,7.72
2022-11-20T19:59:03.015Z,7.78
2022-11-20T20:01:40.596Z,7.87
2022-11-20T20:04:13.998Z,7.85
2022-11-20T20:06:47.348Z,7.99
2022-11-20T20:09:22.969Z,7.98
2022-11-20T20:12:00.687Z,8.02
2022-11-20T20:14:39.629Z,7.97
2022-11-20T20:17:14.080Z,8.07
2022-11-20T20:19:47.584Z,8.06
2022-11-20T20:22:25.965Z,8.10
2022-11-20T20:25:15.477Z,8.11
2022-11-20T20:27:51.046Z,8.17
2022-11-20T20:30:25.535Z,8.15
2022-11-20T20:32:58.722Z,8.20
2022-11-20T20:35:31.735Z,8.22
2022-11-20T20:38:05.150Z,8.05
2022-11-20T20:40:38.469Z,8.17
2022-11-20T20:43:17.234Z,8.30
2022-11-20T20:45:52.562Z,8.31
2022-11-20T20:48:30.063Z,8.39
2022-11-20T20:51:03.666Z,8.32
2022-11-20T20:53:40.560Z,8.43
2022-11-20T20:56:13.713Z,8.45
2022-11-20T20:58:48.796Z,8.52
2022-11-20T21:01:28.536Z,8.36
2022-11-20T21:04:04.240Z,8.40
2022-11-20T21:06:37.204Z,8.29
2022-11-20T21:09:10.306Z,8.41
2022-11-20T21:11:43.023Z,8.44
2022-11-20T21:14:16.523Z,8.53
2022-11-20T21:16:50.638Z,8.57
2022-11-20T21:19:23.480Z,8.47
2022-11-20T21:22:03.159Z,8.47
2022-11-20T21:24:37.410Z,8.50
2022-11-20T21:27:10.471Z,8.56
2022-11-20T21:29:43.086Z,8.55
2022-11-20T21:32:17.395Z,8.62
2022-11-20T21:34:50.186Z,8.66
2022-11-20T21:37:22.781Z,8.72
2022-11-20T21:39:56.405Z,8.74
2022-11-20T21:42:29.315Z,8.81
2022-11-20T21:45:02.056Z,8.75
2022-11-20T21:47:36.094Z,8.74
2022-11-20T21:50:10.567Z,8.81
2022-11-20T21:52:43.324Z,8.88
2022-11-20T21:55:16.000Z,8.94
2022-11-20T21:57:48.756Z,8.83
2022-11-20T22:00:21.740Z,8.94
2022-11-20T22:02:55.608Z,8.92
2022-11-20T22:05:28.324Z,8.82
2022-11-20T22:08:01.079Z,8.87
2022-11-20T22:10:34.396Z,8.88
2022-11-20T22:13:24.460Z,8.85
2022-11-20T22:16:02.352Z,8.77
2022-11-20T22:18:36.732Z,8.73
2022-11-20T22:21:09.609Z,8.81
2022-11-20T22:23:42.635Z,8.86
2022-11-20T22:26:15.957Z,8.87
2022-11-20T22:28:49.604Z,8.90
2022-11-20T22:31:24.143Z,8.87
2022-11-20T22:33:59.979Z,8.76
2022-11-20T22:36:33.567Z,8.81
2022-11-20T22:39:07.393Z,8.84
2022-11-20T22:41:40.165Z,8.70
2022-11-20T22:44:14.323Z,8.80
2022-11-20T22:46:47.256Z,8.72
2022-11-20T22:49:21.570Z,8.67
2022-11-20T22:51:55.536Z,8.69
2022-11-20T22:54:28.350Z,8.72
2022-11-20T22:57:01.205Z,8.74
2022-11-20T22:59:33.869Z,8.70
2022-11-20T23:02:06.841Z,8.69
2022-11-20T23:04:40.923Z,8.65
2022-11-20T23:07:13.743Z,8.67
2022-11-20T23:09:46.478Z,8.70
2022-11-20T23:12:19.206Z,8.63
2022-11-20T23:14:51.812Z,8.62
2022-11-20T23:17:24.605Z,8.77
2022-11-20T23:19:58.670Z,8.74
2022-11-20T23:22:33.098Z,8.72
2022-11-20T23:25:06.804Z,8.78
2022-11-20T23:27:39.550Z,8.79
2022-11-20T23:30:13.236Z,8.78
2022-11-20T23:32:46.064Z,8.78
2022-11-20T23:35:20.047Z,8.84
2022-11-20T23:37:52.963Z,8.84
2022-11-20T23:40:25.753Z,8.85
2022-11-20T23:43:17.175Z,8.88
2022-11-20T23:45:51.427Z,8.87
2022-11-20T23:48:25.966Z,8.92
2022-11-20T23:51:00.470Z,8.88
2022-11-20T23:53:33.656Z,8.87
2022-11-20T23:56:06.899Z,8.87
2022-11-20T23:58:40.067Z,8.88
